Pagina precedente

RISULTATI GARA GSMITA1130 - SCI ALPINO - GS - 15/01/2020

Località: LA THUILE
Denominazione: MEMORIAL FRANCO BERTHOD - GRAND PRIX ITALIA GIOVANI
Organizzazione: 00066 - SCI CLUB LA THUILE RUTOR ASD
Categorie: GIOVANI SENIORES
Data: 15/01/2020
Ora partenza prima manche: 9.45
Ora partenza seconda manche: 13.00
Penalità applicata:
Fattore: 11
Giudice arbitro: MUGNIER C. DELEGATO FIS
Giudice di partenza: REY PIERO - ASSISTENTE DT
Direttore di pista: COLLOMB DANIELE
Direttore di gara: LACCHIO FEDERICO
Giudice di arrivo: RUSSO MICHELE - ASSISTENTE DT
Condizioni meteo: SERENO
Condizioni neve: COMPATTA
Temperatura partenza: -9° C
Temperatura arrivo: -7° C
 
Pos. Pettorale Cognome, Nome Anno Codice FISI Società 1 Manche 2 Manche Tempo
1 13 ANGUENOT Leo 1998 FRA 1:00.61 59.39 2:00.00
2 17 ORECCHIONI Diego 2000 FRA 1:01.39 59.29 2:00.68
3 11 PARAND Loevan 1999 FRA 1:00.42 1:00.33 2:00.75
4 3 HOFER Alex 1994 37158 00047 1:01.16 59.60 2:00.76
5 10 ALLIOT LUGAZ Baptiste 1995 FRA 1:00.69 1:00.10 2:00.79
5 9 GUALAZZI Michele 1994 36725 03220 1:00.57 1:00.22 2:00.79
7 8 FIVEL Sacha 1998 FRA 1:00.47 1:00.36 2:00.83
8 12 LORIOT Florian 1998 FRA 1:01.09 59.78 2:00.87
9 23 GALDIOLO Francesco 1998 39601 00047 1:01.25 59.67 2:00.92
10 26 HELL Damian 1997 39218 00220 1:01.53 59.44 2:00.97
11 1 DELLA VITE Filippo 2001 43691 00157 1:00.38 1:00.60 2:00.98
12 2 CANINS Matteo 1998 39605 00047 1:00.49 1:00.52 2:01.01
13 16 FRANZONI Giovanni 2001 42893 00047 1:00.65 1:00.37 2:01.02
14 5 ORTEGA Albert 1998 ESP 1:01.73 59.61 2:01.34
15 36 TALACCI Simon 2001 42548 00220 1:02.33 59.29 2:01.62
16 6 FRANCESCHETTI Pietro 1993 36305 03429 1:01.29 1:00.36 2:01.65
17 20 PUENTE TASIAS Alejandro 1994 ESP 1:01.47 1:00.47 2:01.94
18 24 CANZIO Pietro 1998 39591 00157 1:01.27 1:00.95 2:02.22
19 31 SCURI Alessandro 1997 39228 00084 1:02.87 59.48 2:02.35
20 42 TARANZANO Luca 1998 39448 00055 1:02.35 1:00.12 2:02.47
21 32 ZAZZARO Giovanni 1999 40634 00418 1:01.91 1:00.60 2:02.51
22 19 BARUFFALDI Davide 1999 40390 00329 1:02.36 1:00.27 2:02.63
23 22 ALLEMAND Daniel 1998 40121 00157 1:02.86 1:00.08 2:02.94
24 37 CANCLINI Fabiano 1998 39789 00118 1:02.62 1:00.33 2:02.95
25 33 LARDON Thomas 2001 FRA 1:03.22 1:00.85 2:04.07
26 72 BINI Lorenzo thomas 2002 44897 03220 1:03.30 1:01.09 2:04.39
27 48 BONARDI Alessio 1998 39968 00157 1:03.40 1:01.06 2:04.46
27 18 BENDOTTI Matteo 2001 43811 00157 1:02.94 1:01.52 2:04.46
29 35 CANCLINI Tommaso 1999 41140 00118 1:03.30 1:01.56 2:04.86
30 30 GASPARINI Michele 1999 40431 00220 1:03.15 1:01.93 2:05.08
31 43 ISABELLA Luca 2001 42651 01184 1:03.51 1:01.85 2:05.36
32 67 POZZI Alessandro 1999 41218 03548 1:03.87 1:01.83 2:05.70
33 52 NARDELLI Martin 1998 02995 1:04.47 1:01.67 2:06.14
34 21 JARVIKARE Niklas 1999 FIN 1:03.39 1:02.80 2:06.19
35 44 TEDDE Michael 1998 39709 C.S.Esercito (00220) 1:03.84 1:02.37 2:06.21
36 81 CORDONE Carlo 2001 44001 02657 1:03.97 1:02.27 2:06.24
37 47 IOZZELLI Davide 1999 40824 01196 1:03.83 1:02.50 2:06.33
38 49 BANFI Pablo 2001 FRA 1:03.71 1:02.63 2:06.34
39 53 COLLINI Filippo 2000 41440 00047 1:04.62 1:01.96 2:06.58
40 71 SEPPI Davide leonardo 2002 44477 00047 1:04.24 1:02.38 2:06.62
41 75 BARBERA Corrado 2002 45536 02537 1:04.31 1:02.40 2:06.71
41 65 FLANAGAN Gray 2001 USA 1:04.44 1:02.27 2:06.71
43 54 NARDI Tommaso 1999 41303 02210 1:04.93 1:01.87 2:06.80
44 50 UNDERHILL Bradshaw 2000 USA 1:04.42 1:02.44 2:06.86
45 58 LUNGER Aron 2000 41843 00039 1:04.06 1:02.87 2:06.93
46 79 MILANESI Alessandro 2000 41550 Chamolé (00593) 1:04.49 1:02.81 2:07.30
47 55 CORDONE Stefano 1999 40661 02657 1:04.79 1:02.63 2:07.42
48 80 SARTORI Gabriele 2001 42898 03358 1:04.99 1:02.48 2:07.47
49 74 PUTZER Simon 2001 42991 01069 1:04.71 1:02.94 2:07.65
50 78 SALINI Alessandro 1998 39643 00118 1:03.72 1:04.37 2:08.09
51 101 COMPLOJ Matthias 2002 44253 00078 1:05.27 1:02.89 2:08.16
52 91 DI PAOLO Gianlorenzo 2001 42892 03358 1:05.67 1:03.04 2:08.71
53 63 RIEMENSCHNEIDER Noah 2001 USA 1:04.82 1:03.92 2:08.74
54 99 GROSSRUBATSCHER Matteo 2001 43164 00078 1:05.81 1:03.09 2:08.90
55 104 CELLIE Alberto 2003 46037 00236 1:05.74 1:03.36 2:09.10
56 83 PIZZATO Matteo 2000 42132 02210 1:05.18 1:04.00 2:09.18
57 64 RIZZI Martino 2000 42058 00157 1:04.06 1:05.79 2:09.85
58 86 GRAMM Lukas 2000 41734 02013 1:05.43 1:04.46 2:09.89
59 94 LARIVIERE Thomas 2002 45105 Crammont MB (00375) 1:06.43 1:03.73 2:10.16
60 113 BACHER Jonas 2002 44134 00418 1:06.69 1:03.51 2:10.20
61 98 LANTSCHNER David 2001 43619 02013 1:07.01 1:03.80 2:10.81
62 89 PARAZETTE Oliver 2002 USA 1:06.68 1:04.65 2:11.33
63 106 MALSINER Max 2002 45110 00078 1:06.66 1:05.09 2:11.75
64 114 BERTHOD Stephane 2002 45428 Pila (00153) 1:06.71 1:05.12 2:11.83
65 93 CAMPOSILVAN Filippo 1999 41096 02210 1:07.67 1:04.56 2:12.23
66 117 DE ZANNA Elia 2002 44375 00018 1:07.31 1:04.97 2:12.28
67 57 BERNARDI Mattia 2000 41790 02685 1:07.16 1:05.52 2:12.68
68 121 ARNALDI Alessandro 2002 44213 Courmayeur MB (00054) 1:07.75 1:05.59 2:13.34
69 112 GUERRI Marco 2001 43027 02928 1:07.61 1:05.92 2:13.53
70 116 LAMI Alessandro 2002 44572 CLUB DE SKI (02580) 1:08.11 1:05.63 2:13.74
71 96 LOMOVSKIKH Matvei 1999 RUS 1:07.87 1:05.89 2:13.76
72 126 CANONICO Tommaso 2003 45805 Aosta (00128) 1:08.23 1:05.65 2:13.88
73 124 MAGNETTI Leonardo 2003 46577 CLUB DE SKI (02580) 1:08.51 1:05.49 2:14.00
74 125 STIEVANO Andrea 1999 40534 00118 1:09.68 1:07.49 2:17.17
75 133 CARREL Edoardo 2003 47205 Crammont MB (00375) 1:09.60 1:07.67 2:17.27
76 123 BAL Matteo 2002 44990 Pila (00153) 1:10.73 1:06.79 2:17.52
77 128 CHIARAVALLI Alessandro 2003 45917 La Thuile Rutor (00066) 1:10.36 1:07.37 2:17.73
78 136 CREMONESE Lorenzo 2003 46637 02468 1:13.38 1:07.09 2:20.47
79 135 GRIEVE Joe 2003 GBR 1:18.98 1:15.24 2:34.22
DNF1 14 GUILLOT Victor 1996 FRA
DNF1 29 PIZIO Alessandro 2001 42581 00418
DNF1 39 SALARICH Joaquim 1994 ESP
DNF1 40 VON APPEN Sven 1997 CHI
DNF1 41 ROSSI Andrea 1996 38081 00055
DNF1 45 ALLIOD Benjamin 2000 41384 C.S.Esercito (00220)
DNF1 46 SMITH Jack 2001 USA
DNF1 56 MORGAN Oliver 2001 USA
DNF1 66 JARVIKARE Henrik 1999 FIN
DNF1 68 RESINELLI Luca 1999 40946 03548
DNF1 69 SACCARDI Tommaso 2001 43366 00236
DNF1 73 SANTACROCE Francesco 2001 43526 00157
DNF1 77 SCUSSEL Federico 2001 42544 00157
DNF1 82 BONIFACE Emile 2002 45286 Chamolé (00593)
DNF1 84 PERRETTA Elliot 2002 45221 Courmayeur MB (00054)
DNF1 85 TANGHETTI Davide 2002 44425 00155
DNF1 100 PLANOETSCHER Gabriel 2001 42777 02013
DNF1 107 PERATHONER Max 2003 45861 00078
DNF1 109 HUDSON Tom 2001 GBR
DNF1 110 BOCCACCI Matteo 2002 44691 02162
DNF1 111 DALLA LIBERA Thomas 2001 43584 00005
DNF1 118 PEAQUIN Alessandro 2001 43071 Val d'Ayas (00260)
DNF1 119 LARCHER Maximilian 2001 43165 02013
DNF1 120 QUEY Philippe 2003 46198 Val d'Ayas (00260)
DNF1 127 MANZ Mattia 2002 SUI
DNF1 129 MUSA Filippo 2002 45434 Crammont MB (00375)
DNF1 130 CESANA Leonardo 2003 46629 Crammont MB (00375)
DNF1 131 HAY Adam 2001 GBR
DNF1 132 HANNAN James 2001 GBR
DNF1 134 PRICE Joshua 2001 GBR
DNS2 51 MOSCHINI Lorenzo 1997 38981 00220
DNS2 62 DA PRADA Simone 2000 42110 00118
DNS2 90 BERNARDOTTI Giacomo 2001 43453 Chamolé (00593)
DNF2 4 MOLING Samuel 1998 39840 00337
DNF2 7 FALGOUX Remy 1996 FRA
DNF2 15 ZINGERLE Alex 1992 35871 00047
DNF2 25 PLONER Manuel 2001 42796 00047
DNF2 27 GARAY Aingeru 1998 ESP
DNF2 28 CONFORTOLA Matteo 1995 37751 03322
DNF2 34 NELSON Isaiah 2001 USA
DNF2 38 DE ZAN Diego 1999 40539 00329
DNF2 59 DALMASSO Giacomo 2000 41737 00047
DNF2 60 RIZZI Lukas 2000 42356 01069
DNF2 61 FRANZOSO Matteo 1999 40990 00047
DNF2 70 SENONER Aaron 2001 42713 00078
DNF2 76 MAMMARELLA Goffredo 2001 42859 00418
DNF2 87 CAROSINI Matteo 2001 43218 00236
DNF2 88 RANZI Maximilian 2001 42709 00184
DNF2 92 LEITNER Raphael 2000 41818 00078
DNF2 95 PEDRONCELLI Valerio 2002 45627 00084
DNF2 97 MARTIGNAGO Luca 2002 45606 00018
DNF2 102 BETHAZ Stephane 2002 44174 Pila (00153)
DNF2 103 BIELLER Peter 2001 42791 Val d'Ayas (00260)
DNF2 105 MORETTI Renato 2001 43450 00341
DNF2 108 POLESEL Davide 2001 42545 Pila (00153)
DNF2 115 ZANNI Alessandro 2001 42585 03358
DNF2 122 SEGALA Filippo 2003 46654 Chamolé (00593)

DOVE SIAMO

Via Grand Eyvia, 59
11100 AOSTA

TELEFONO

0165.262001

SEGRETERIA

loredana@asiva.it
segreteria@asiva.it

E-MAIL

crva@fisi.org
presidente@asiva.it

UFF. STAMPA

stampa@asiva.it

ORARIO SEGRETERIA

LUN 15:00 - 18:00
MAR 10:00 - 12:00 | 15:00 - 18:00
MER 15:00 - 18:00
GIO 10:00 - 12:00 | 15:00 - 18:00
VEN 10:00 - 12:00 | 15:00 - 18:00